Time;durP1;ratioP1;P1;durP2;ratioP2;P2;SDS_P1;SDS_P2;PMS_P1;PMS_P2;Temp;Humidity;BMP_temperature;BMP_pressure;BME280_temperature;BME280_humidity;BME280_pressure;Samples;Min_cycle;Max_cycle;Signal;HPM_P1;HPM_P2
2022/07/07 00:02:01;;;;;;;4.75;1.85;;;;;;;;;;4916736;29;20048;-67
2022/07/07 00:04:28;;;;;;;2.70;1.88;;;;;;;;;;4916804;29;20186;-67
2022/07/07 00:06:54;;;;;;;5.25;1.90;;;;;;;;;;4916657;29;20052;-67
2022/07/07 00:09:21;;;;;;;3.60;1.92;;;;;;;;;;4916034;29;20058;-67
2022/07/07 00:11:48;;;;;;;4.22;1.75;;;;;;;;;;4916778;29;20052;-67
2022/07/07 00:14:14;;;;;;;2.10;1.50;;;;;;;;;;4916496;29;20052;-67
2022/07/07 00:16:41;;;;;;;2.17;1.70;;;;;;;;;;4916468;29;20052;-67
2022/07/07 00:19:08;;;;;;;4.00;1.70;;;;;;;;;;4915901;29;20079;-67
2022/07/07 00:21:35;;;;;;;4.63;2.00;;;;;;;;;;4916318;29;20515;-67
2022/07/07 00:24:01;;;;;;;3.00;1.70;;;;;;;;;;4916390;29;20054;-67
2022/07/07 00:26:30;;;;;;;3.80;1.70;;;;;;;;;;4916476;29;20052;-67
2022/07/07 00:28:57;;;;;;;4.18;1.52;;;;;;;;;;4916198;29;20055;-67
2022/07/07 00:31:23;;;;;;;3.72;1.88;;;;;;;;;;4916217;29;20052;-67
2022/07/07 00:33:50;;;;;;;5.50;2.20;;;;;;;;;;4916138;29;20055;-67
2022/07/07 00:36:17;;;;;;;2.97;1.70;;;;;;;;;;4916466;29;20060;-67
2022/07/07 00:38:45;;;;;;;4.22;1.60;;;;;;;;;;4915789;29;20048;-67
2022/07/07 00:41:11;;;;;;;2.38;1.80;;;;;;;;;;4916236;29;20054;-67
2022/07/07 00:43:40;;;;;;;2.90;1.48;;;;;;;;;;4915938;29;20063;-67
2022/07/07 00:46:07;;;;;;;3.65;1.60;;;;;;;;;;4916004;29;20052;-67
2022/07/07 00:48:38;;;;;;;2.40;1.70;;;;;;;;;;4915648;29;20055;-67
2022/07/07 00:51:06;;;;;;;4.63;1.50;;;;;;;;;;4915884;29;20547;-67
2022/07/07 00:53:33;;;;;;;2.03;1.33;;;;;;;;;;4916052;29;20048;-67
2022/07/07 00:55:59;;;;;;;3.22;1.40;;;;;;;;;;4916028;29;20052;-67
2022/07/07 00:58:26;;;;;;;2.00;1.60;;;;;;;;;;4915332;29;20056;-67
2022/07/07 01:00:53;;;;;;;1.95;1.50;;;;;;;;;;4915617;29;20066;-67
2022/07/07 01:03:19;;;;;;;4.28;1.50;;;;;;;;;;4915570;29;20051;-67
2022/07/07 01:05:47;;;;;;;2.75;1.52;;;;;;;;;;4915953;29;20079;-67
2022/07/07 01:08:17;;;;;;;3.08;1.60;;;;;;;;;;4915537;29;20062;-67
2022/07/07 01:10:44;;;;;;;3.88;1.80;;;;;;;;;;4916029;29;20055;-67
2022/07/07 01:13:14;;;;;;;2.03;1.85;;;;;;;;;;4914710;29;20055;-67
2022/07/07 01:15:40;;;;;;;3.03;1.70;;;;;;;;;;4915662;29;20066;-67
2022/07/07 01:18:07;;;;;;;2.13;1.67;;;;;;;;;;4915527;29;20056;-67
2022/07/07 01:20:34;;;;;;;4.72;1.95;;;;;;;;;;4915619;29;20091;-67
2022/07/07 01:23:00;;;;;;;2.80;1.60;;;;;;;;;;4915557;29;20048;-67
2022/07/07 01:25:27;;;;;;;4.57;1.80;;;;;;;;;;4914339;29;20051;-67
2022/07/07 01:27:53;;;;;;;3.58;1.48;;;;;;;;;;4914115;29;20075;-67
2022/07/07 01:30:20;;;;;;;4.57;1.80;;;;;;;;;;4915323;29;20056;-67
2022/07/07 01:32:47;;;;;;;4.88;1.60;;;;;;;;;;4915519;29;20087;-67
2022/07/07 01:35:13;;;;;;;3.03;1.92;;;;;;;;;;4915549;29;20056;-67
2022/07/07 01:37:40;;;;;;;4.32;1.90;;;;;;;;;;4915369;29;20064;-67
2022/07/07 01:40:07;;;;;;;3.95;2.22;;;;;;;;;;4915082;29;20048;-67
2022/07/07 01:42:34;;;;;;;9.23;2.70;;;;;;;;;;4915224;29;20059;-67
2022/07/07 01:45:00;;;;;;;5.32;2.13;;;;;;;;;;4915463;29;20060;-67
2022/07/07 01:47:27;;;;;;;2.90;2.13;;;;;;;;;;4915608;29;20503;-67
2022/07/07 01:49:54;;;;;;;4.45;1.90;;;;;;;;;;4915157;29;20060;-67
2022/07/07 01:52:20;;;;;;;4.97;2.33;;;;;;;;;;4915326;29;20441;-67
2022/07/07 01:54:47;;;;;;;3.22;1.98;;;;;;;;;;4915238;29;20056;-67
2022/07/07 01:57:14;;;;;;;4.93;2.10;;;;;;;;;;4913827;29;20059;-67
2022/07/07 01:59:40;;;;;;;4.78;2.10;;;;;;;;;;4915270;29;20075;-67
2022/07/07 02:02:07;;;;;;;6.35;2.28;;;;;;;;;;4915279;29;20048;-67
2022/07/07 02:04:34;;;;;;;4.40;2.47;;;;;;;;;;4915404;29;20056;-67
2022/07/07 02:07:01;;;;;;;3.30;2.20;;;;;;;;;;4915111;29;20056;-67
2022/07/07 02:09:27;;;;;;;5.10;2.80;;;;;;;;;;4914922;29;20456;-67
2022/07/07 02:11:54;;;;;;;3.72;2.15;;;;;;;;;;4915124;29;20467;-67
2022/07/07 02:14:21;;;;;;;4.60;2.30;;;;;;;;;;4918529;29;20048;-67
2022/07/07 02:16:48;;;;;;;4.00;2.10;;;;;;;;;;4918831;29;20091;-67
2022/07/07 02:19:15;;;;;;;2.50;2.08;;;;;;;;;;4918274;29;20523;-67
2022/07/07 02:21:42;;;;;;;7.85;2.72;;;;;;;;;;4918514;29;20059;-67
2022/07/07 02:24:08;;;;;;;3.78;2.20;;;;;;;;;;4918475;29;20063;-67
2022/07/07 02:26:35;;;;;;;4.32;2.33;;;;;;;;;;4918453;29;20056;-67
2022/07/07 02:29:02;;;;;;;3.35;2.60;;;;;;;;;;4918340;29;20063;-67
2022/07/07 02:31:30;;;;;;;2.55;2.35;;;;;;;;;;4918350;29;20103;-67
2022/07/07 02:33:57;;;;;;;3.58;2.55;;;;;;;;;;4918464;29;20056;-67
2022/07/07 02:36:23;;;;;;;3.33;2.15;;;;;;;;;;4918267;29;20048;-67
2022/07/07 02:38:50;;;;;;;4.05;2.33;;;;;;;;;;4918326;29;20056;-67
2022/07/07 02:41:17;;;;;;;3.55;2.35;;;;;;;;;;4918517;29;20052;-67
2022/07/07 02:43:45;;;;;;;4.43;2.30;;;;;;;;;;4918304;29;20055;-67
2022/07/07 02:46:12;;;;;;;3.10;2.40;;;;;;;;;;4918184;29;20503;-67
2022/07/07 02:48:38;;;;;;;4.07;2.60;;;;;;;;;;4917935;29;20052;-67
2022/07/07 02:51:05;;;;;;;4.30;2.28;;;;;;;;;;4917903;29;20059;-67
2022/07/07 02:53:34;;;;;;;3.95;2.40;;;;;;;;;;4917969;29;20055;-67
2022/07/07 02:56:01;;;;;;;4.88;2.65;;;;;;;;;;4918223;29;20056;-67
2022/07/07 02:58:28;;;;;;;2.83;2.33;;;;;;;;;;4917624;29;20056;-67
2022/07/07 03:00:54;;;;;;;3.85;2.20;;;;;;;;;;4917877;29;20048;-66
2022/07/07 03:03:21;;;;;;;4.75;2.10;;;;;;;;;;4917767;29;20124;-66
2022/07/07 03:05:49;;;;;;;5.20;2.33;;;;;;;;;;4917625;29;20056;-67
2022/07/07 03:08:15;;;;;;;3.45;2.38;;;;;;;;;;4917528;29;20067;-67
2022/07/07 03:10:42;;;;;;;3.53;2.40;;;;;;;;;;4917607;29;20055;-66
2022/07/07 03:13:09;;;;;;;3.50;2.40;;;;;;;;;;4917851;29;20095;-66
2022/07/07 03:15:35;;;;;;;3.60;2.45;;;;;;;;;;4917772;29;20059;-66
2022/07/07 03:18:02;;;;;;;5.85;3.78;;;;;;;;;;4917481;29;20106;-66
2022/07/07 03:20:29;;;;;;;3.80;3.05;;;;;;;;;;4917388;29;20132;-66
2022/07/07 03:22:55;;;;;;;3.95;2.50;;;;;;;;;;4917657;29;20056;-66
2022/07/07 03:25:22;;;;;;;4.63;2.25;;;;;;;;;;4916263;29;20056;-68
2022/07/07 03:27:49;;;;;;;3.95;2.53;;;;;;;;;;4917367;29;20071;-68
2022/07/07 03:30:15;;;;;;;3.10;2.40;;;;;;;;;;4917178;29;20465;-68
2022/07/07 03:32:42;;;;;;;4.85;2.35;;;;;;;;;;4917382;29;20107;-68
2022/07/07 03:35:09;;;;;;;2.70;2.28;;;;;;;;;;4917205;29;20056;-68
2022/07/07 03:37:36;;;;;;;5.40;2.17;;;;;;;;;;4917137;29;20508;-68
2022/07/07 03:40:04;;;;;;;7.45;2.53;;;;;;;;;;4916881;29;20052;-68
2022/07/07 03:42:31;;;;;;;3.17;2.10;;;;;;;;;;4917058;29;20048;-67
2022/07/07 03:44:58;;;;;;;6.05;2.50;;;;;;;;;;4917163;29;20048;-68
2022/07/07 03:47:24;;;;;;;3.88;2.55;;;;;;;;;;4916989;29;20048;-67
2022/07/07 03:49:51;;;;;;;4.20;2.00;;;;;;;;;;4916859;29;20420;-68
2022/07/07 03:52:18;;;;;;;2.58;2.22;;;;;;;;;;4917180;29;20052;-68
2022/07/07 03:54:44;;;;;;;4.03;2.10;;;;;;;;;;4917046;29;20075;-68
2022/07/07 03:57:11;;;;;;;3.40;1.83;;;;;;;;;;4916777;29;20492;-68
2022/07/07 03:59:37;;;;;;;2.83;1.90;;;;;;;;;;4916519;29;20056;-68
2022/07/07 04:02:04;;;;;;;2.75;1.65;;;;;;;;;;4916825;29;20067;-68
2022/07/07 04:04:31;;;;;;;2.15;1.60;;;;;;;;;;4916551;29;20498;-68
2022/07/07 04:06:58;;;;;;;4.60;1.70;;;;;;;;;;4914892;29;20055;-68
2022/07/07 04:09:25;;;;;;;6.00;1.60;;;;;;;;;;4914342;29;20059;-68
2022/07/07 04:11:52;;;;;;;4.32;1.38;;;;;;;;;;4914521;29;20107;-68
2022/07/07 04:14:18;;;;;;;7.93;1.58;;;;;;;;;;4914730;29;20052;-68
2022/07/07 04:16:45;;;;;;;4.00;1.40;;;;;;;;;;4914410;29;20052;-68
2022/07/07 04:19:12;;;;;;;5.20;1.60;;;;;;;;;;4913963;29;20148;-68
2022/07/07 04:21:38;;;;;;;1.67;1.20;;;;;;;;;;4914045;29;20389;-68
2022/07/07 04:24:05;;;;;;;7.38;1.30;;;;;;;;;;4914479;29;20374;-68
2022/07/07 04:26:32;;;;;;;3.53;1.33;;;;;;;;;;4914421;29;20048;-68
2022/07/07 04:28:58;;;;;;;3.40;1.48;;;;;;;;;;4914015;29;20052;-68
2022/07/07 04:31:25;;;;;;;1.80;1.23;;;;;;;;;;4913893;29;20281;-68
2022/07/07 04:33:52;;;;;;;2.00;1.50;;;;;;;;;;4913821;29;20044;-68
2022/07/07 04:36:19;;;;;;;3.67;1.30;;;;;;;;;;4914051;29;20056;-68
2022/07/07 04:38:45;;;;;;;3.05;1.23;;;;;;;;;;4913967;29;20063;-70
2022/07/07 04:41:12;;;;;;;2.30;1.20;;;;;;;;;;4914837;29;20077;-67
2022/07/07 04:43:38;;;;;;;2.55;1.30;;;;;;;;;;4913607;29;20424;-68
2022/07/07 04:46:05;;;;;;;5.00;1.42;;;;;;;;;;4910596;29;20052;-71
2022/07/07 04:48:32;;;;;;;5.45;1.30;;;;;;;;;;4906086;29;20405;-69
2022/07/07 04:50:58;;;;;;;3.95;1.45;;;;;;;;;;4914383;29;20055;-69
2022/07/07 04:53:25;;;;;;;3.45;1.80;;;;;;;;;;4915860;29;20059;-69
2022/07/07 04:55:52;;;;;;;2.00;1.42;;;;;;;;;;4915499;29;20067;-69
2022/07/07 04:58:19;;;;;;;2.38;1.30;;;;;;;;;;4913883;29;20143;-69
2022/07/07 05:00:46;;;;;;;2.67;1.40;;;;;;;;;;4915268;29;20124;-69
2022/07/07 05:03:12;;;;;;;2.88;1.30;;;;;;;;;;4915551;29;20514;-69
2022/07/07 05:05:39;;;;;;;2.33;1.42;;;;;;;;;;4915875;29;20530;-69
2022/07/07 05:08:06;;;;;;;3.10;1.30;;;;;;;;;;4915573;29;20203;-69
2022/07/07 05:10:32;;;;;;;4.90;1.30;;;;;;;;;;4915429;29;20064;-70
2022/07/07 05:12:59;;;;;;;6.72;1.70;;;;;;;;;;4915523;29;20107;-69
2022/07/07 05:15:26;;;;;;;2.60;1.30;;;;;;;;;;4915568;29;20063;-70
2022/07/07 05:17:53;;;;;;;2.78;1.50;;;;;;;;;;4915544;29;20048;-70
2022/07/07 05:20:25;;;;;;;3.45;1.13;;;;;;;;;;4915556;29;20107;-70
2022/07/07 05:22:51;;;;;;;4.00;1.50;;;;;;;;;;4915450;29;20056;-70
2022/07/07 05:25:18;;;;;;;4.65;1.80;;;;;;;;;;4915594;29;20052;-69
2022/07/07 05:27:45;;;;;;;1.73;1.40;;;;;;;;;;4915357;29;20068;-69
2022/07/07 05:30:16;;;;;;;2.65;1.35;;;;;;;;;;4915462;29;20052;-69
2022/07/07 05:32:43;;;;;;;3.83;2.10;;;;;;;;;;4915529;29;20052;-69
2022/07/07 05:35:10;;;;;;;6.15;2.00;;;;;;;;;;4915547;29;20056;-69
2022/07/07 05:37:37;;;;;;;5.65;1.60;;;;;;;;;;4915418;29;20178;-69
2022/07/07 05:40:04;;;;;;;3.65;1.75;;;;;;;;;;4915168;29;20063;-69
2022/07/07 05:42:31;;;;;;;3.97;1.60;;;;;;;;;;4915708;29;20060;-69
2022/07/07 05:44:57;;;;;;;1.85;1.20;;;;;;;;;;4915452;29;20062;-69
2022/07/07 05:47:24;;;;;;;3.15;1.25;;;;;;;;;;4915850;29;20409;-69
2022/07/07 05:49:51;;;;;;;2.78;1.40;;;;;;;;;;4919018;29;20060;-69
2022/07/07 05:52:18;;;;;;;2.70;1.45;;;;;;;;;;4919126;29;20063;-69
2022/07/07 05:54:44;;;;;;;4.05;1.40;;;;;;;;;;4918986;29;20055;-69
2022/07/07 05:57:11;;;;;;;1.80;1.27;;;;;;;;;;4918905;29;20059;-69
2022/07/07 05:59:38;;;;;;;4.97;1.35;;;;;;;;;;4918896;29;20504;-69
2022/07/07 06:02:04;;;;;;;4.03;1.95;;;;;;;;;;4919006;29;20059;-69
2022/07/07 06:04:31;;;;;;;4.80;2.60;;;;;;;;;;4918884;29;20079;-69
2022/07/07 06:06:58;;;;;;;2.22;1.65;;;;;;;;;;4918818;29;20053;-69
2022/07/07 06:09:24;;;;;;;4.30;1.38;;;;;;;;;;4918646;29;20500;-69
2022/07/07 06:11:51;;;;;;;8.13;2.03;;;;;;;;;;4918801;29;20059;-69
2022/07/07 06:14:17;;;;;;;6.93;2.22;;;;;;;;;;4918900;29;20044;-69
2022/07/07 06:16:45;;;;;;;5.60;1.92;;;;;;;;;;4918769;29;20048;-69
2022/07/07 06:19:12;;;;;;;3.13;1.60;;;;;;;;;;4918468;29;20062;-70
2022/07/07 06:21:41;;;;;;;5.68;1.80;;;;;;;;;;4917290;29;20056;-69
2022/07/07 06:24:08;;;;;;;4.88;1.50;;;;;;;;;;4919025;29;20048;-69
2022/07/07 06:26:34;;;;;;;5.88;1.95;;;;;;;;;;4918834;29;20419;-70
2022/07/07 06:29:01;;;;;;;2.53;1.30;;;;;;;;;;4918252;29;20062;-70
2022/07/07 06:31:27;;;;;;;3.95;1.42;;;;;;;;;;4918579;29;20056;-70
2022/07/07 06:33:54;;;;;;;1.85;1.23;;;;;;;;;;4918445;29;20056;-70
2022/07/07 06:36:21;;;;;;;1.88;1.33;;;;;;;;;;4918335;29;20139;-70
2022/07/07 06:38:47;;;;;;;2.60;1.70;;;;;;;;;;4917838;29;20055;-69
2022/07/07 06:41:14;;;;;;;5.38;1.45;;;;;;;;;;4917778;29;20052;-70
2022/07/07 06:43:41;;;;;;;3.55;1.30;;;;;;;;;;4918222;29;20404;-70
2022/07/07 06:46:08;;;;;;;5.30;1.42;;;;;;;;;;4918200;29;20052;-69
2022/07/07 06:48:34;;;;;;;3.85;1.65;;;;;;;;;;4900689;29;20107;-69
2022/07/07 06:51:01;;;;;;;4.68;1.10;;;;;;;;;;4915162;29;20060;-69
2022/07/07 06:53:28;;;;;;;5.28;1.55;;;;;;;;;;4898847;29;20135;-68
2022/07/07 06:55:55;;;;;;;1.92;1.20;;;;;;;;;;4915725;29;20139;-69
2022/07/07 06:58:22;;;;;;;3.42;1.30;;;;;;;;;;4915360;29;20055;-69
2022/07/07 07:00:49;;;;;;;2.65;1.35;;;;;;;;;;4915746;29;20056;-69
2022/07/07 07:03:15;;;;;;;4.72;1.38;;;;;;;;;;4915318;29;20052;-68
2022/07/07 07:05:42;;;;;;;5.45;1.30;;;;;;;;;;4915750;29;20064;-69
2022/07/07 07:08:09;;;;;;;3.58;1.30;;;;;;;;;;4915745;29;20066;-69
2022/07/07 07:10:35;;;;;;;3.80;1.30;;;;;;;;;;4915916;29;20452;-69
2022/07/07 07:13:03;;;;;;;3.80;1.65;;;;;;;;;;4915688;29;20052;-68
2022/07/07 07:15:29;;;;;;;3.60;1.27;;;;;;;;;;4910933;29;20056;-69
2022/07/07 07:17:56;;;;;;;3.65;1.52;;;;;;;;;;4906478;29;20234;-68
2022/07/07 07:20:23;;;;;;;4.25;1.50;;;;;;;;;;4904931;29;20056;-68
2022/07/07 07:22:50;;;;;;;6.28;1.70;;;;;;;;;;4907394;29;20063;-68
2022/07/07 07:25:17;;;;;;;4.32;1.38;;;;;;;;;;4904550;29;20052;-69
2022/07/07 07:27:44;;;;;;;2.58;1.27;;;;;;;;;;4906020;29;20065;-77
2022/07/07 07:30:11;;;;;;;2.97;1.30;;;;;;;;;;4909024;29;20048;-77
2022/07/07 07:32:38;;;;;;;4.10;1.50;;;;;;;;;;4910221;29;20048;-78
2022/07/07 07:35:05;;;;;;;3.05;1.23;;;;;;;;;;4891818;29;20055;-75
2022/07/07 07:37:32;;;;;;;1.90;1.17;;;;;;;;;;4907599;29;20059;-68
2022/07/07 07:39:58;;;;;;;1.27;1.10;;;;;;;;;;4903927;29;20049;-68
2022/07/07 07:42:25;;;;;;;4.53;1.52;;;;;;;;;;4908854;29;20061;-68
2022/07/07 07:45:10;;;;;;;3.10;1.35;;;;;;;;;;4914132;29;20048;-68
2022/07/07 07:47:44;;;;;;;4.40;1.85;;;;;;;;;;4917185;29;20056;-68
2022/07/07 07:50:15;;;;;;;4.63;1.38;;;;;;;;;;4917056;29;20060;-66
2022/07/07 07:52:43;;;;;;;4.00;1.55;;;;;;;;;;4916811;29;20508;-68
2022/07/07 07:55:11;;;;;;;4.03;1.65;;;;;;;;;;4916909;29;20048;-68
2022/07/07 07:57:38;;;;;;;3.22;1.20;;;;;;;;;;4916577;29;20404;-68
2022/07/07 08:00:09;;;;;;;3.35;1.05;;;;;;;;;;4900423;29;20686;-67
2022/07/07 08:02:37;;;;;;;2.42;1.00;;;;;;;;;;4903874;29;20516;-68
2022/07/07 08:05:04;;;;;;;5.60;2.03;;;;;;;;;;4907098;29;20045;-68
2022/07/07 08:07:32;;;;;;;2.05;1.30;;;;;;;;;;4902627;29;20068;-67
2022/07/07 08:10:00;;;;;;;3.20;1.20;;;;;;;;;;4902805;29;20682;-68
2022/07/07 08:12:27;;;;;;;2.35;1.40;;;;;;;;;;4902547;29;20496;-70
2022/07/07 08:14:54;;;;;;;3.47;1.20;;;;;;;;;;4905766;29;20488;-69
2022/07/07 08:17:20;;;;;;;3.08;1.35;;;;;;;;;;4902761;29;20112;-66
2022/07/07 08:19:47;;;;;;;1.83;1.23;;;;;;;;;;4905388;29;20138;-67
2022/07/07 08:22:14;;;;;;;2.83;1.33;;;;;;;;;;4902967;29;20530;-68
2022/07/07 08:24:41;;;;;;;2.53;1.42;;;;;;;;;;4903155;29;20059;-68
2022/07/07 08:27:08;;;;;;;3.15;1.33;;;;;;;;;;4903368;29;20057;-68
2022/07/07 08:29:38;;;;;;;3.75;1.58;;;;;;;;;;4902902;29;20064;-67
2022/07/07 08:32:06;;;;;;;2.85;1.60;;;;;;;;;;4901613;29;20059;-67
2022/07/07 08:34:34;;;;;;;3.03;1.40;;;;;;;;;;4909760;29;20048;-68
2022/07/07 08:37:08;;;;;;;5.05;2.05;;;;;;;;;;4911241;29;20044;-68
2022/07/07 08:39:34;;;;;;;3.83;1.38;;;;;;;;;;4908279;29;20056;-69
2022/07/07 08:42:01;;;;;;;2.78;1.45;;;;;;;;;;4906852;29;20055;-69
2022/07/07 08:44:28;;;;;;;3.55;1.92;;;;;;;;;;4902257;29;20053;-68
2022/07/07 08:46:54;;;;;;;4.50;2.03;;;;;;;;;;4903401;29;20049;-68
2022/07/07 08:49:21;;;;;;;3.30;1.95;;;;;;;;;;4902352;29;20068;-68
2022/07/07 08:51:48;;;;;;;9.27;2.55;;;;;;;;;;4905848;29;20056;-67
2022/07/07 08:54:15;;;;;;;7.45;2.90;;;;;;;;;;4902871;29;20412;-67
2022/07/07 08:56:42;;;;;;;3.45;1.90;;;;;;;;;;4906909;29;20060;-67
2022/07/07 08:59:13;;;;;;;4.88;1.75;;;;;;;;;;4903277;29;20065;-68
2022/07/07 09:01:40;;;;;;;3.42;1.80;;;;;;;;;;4909472;29;20058;-68
2022/07/07 09:04:07;;;;;;;4.60;2.13;;;;;;;;;;4905496;29;20044;-68
2022/07/07 09:06:34;;;;;;;3.13;2.40;;;;;;;;;;4901748;29;20480;-68
2022/07/07 09:09:03;;;;;;;4.18;2.22;;;;;;;;;;4903399;29;20048;-62
2022/07/07 09:11:33;;;;;;;3.55;1.95;;;;;;;;;;4894782;29;20048;-66
2022/07/07 09:14:17;;;;;;;3.33;1.90;;;;;;;;;;4908282;29;20063;-66
2022/07/07 09:16:43;;;;;;;1.00;1.00;;;;;;;;;;4906503;29;20044;-65
2022/07/07 09:19:19;;;;;;;1.63;1.20;;;;;;;;;;4901358;29;20576;-65
2022/07/07 09:21:47;;;;;;;6.85;1.70;;;;;;;;;;4904836;29;20127;-66
2022/07/07 09:24:14;;;;;;;2.60;1.40;;;;;;;;;;4902726;29;20040;-68
2022/07/07 09:26:42;;;;;;;6.20;1.50;;;;;;;;;;4901760;29;20052;-68
2022/07/07 09:29:14;;;;;;;4.40;1.48;;;;;;;;;;4902945;29;20056;-67
2022/07/07 09:31:53;;;;;;;3.30;2.00;;;;;;;;;;4901748;29;20089;-69
2022/07/07 09:34:23;;;;;;;3.75;1.80;;;;;;;;;;4902238;29;20303;-68
2022/07/07 09:39:39;;;;;;;5.00;2.60;;;;;;;;;;4901172;29;20424;-68
2022/07/07 09:42:28;;;;;;;3.85;1.98;;;;;;;;;;4901327;29;20048;-68
2022/07/07 09:45:05;;;;;;;4.30;2.10;;;;;;;;;;4904417;29;20467;-68
2022/07/07 09:47:34;;;;;;;6.82;2.03;;;;;;;;;;4903038;29;20063;-68
2022/07/07 09:50:12;;;;;;;4.40;1.90;;;;;;;;;;4901258;29;20062;-69
2022/07/07 09:52:47;;;;;;;2.70;1.67;;;;;;;;;;4904667;29;20052;-75
2022/07/07 09:55:15;;;;;;;3.40;1.65;;;;;;;;;;4904392;29;20055;-74
2022/07/07 09:57:49;;;;;;;4.68;1.90;;;;;;;;;;4907344;29;20070;-75
2022/07/07 10:00:16;;;;;;;3.17;2.08;;;;;;;;;;4902982;29;20048;-71
2022/07/07 10:02:42;;;;;;;2.17;1.40;;;;;;;;;;4900879;29;20064;-71
2022/07/07 10:05:09;;;;;;;3.42;1.45;;;;;;;;;;4901870;29;20052;-69
2022/07/07 10:07:37;;;;;;;2.45;1.42;;;;;;;;;;4905239;29;20057;-72
2022/07/07 10:10:09;;;;;;;1.50;1.30;;;;;;;;;;4904681;29;20492;-74
2022/07/07 10:12:46;;;;;;;2.13;1.15;;;;;;;;;;4901320;29;20062;-74
2022/07/07 10:15:13;;;;;;;2.28;1.73;;;;;;;;;;4901187;29;20045;-68
2022/07/07 10:17:41;;;;;;;4.45;2.30;;;;;;;;;;4903353;29;20056;-68
2022/07/07 10:20:08;;;;;;;4.28;1.40;;;;;;;;;;4908860;29;20086;-74
2022/07/07 10:22:35;;;;;;;1.75;1.35;;;;;;;;;;4902925;29;20500;-71
2022/07/07 10:25:05;;;;;;;2.42;1.40;;;;;;;;;;4900149;29;20060;-75
2022/07/07 10:27:33;;;;;;;2.95;1.20;;;;;;;;;;4895900;29;20060;-70
2022/07/07 10:30:04;;;;;;;2.63;1.60;;;;;;;;;;4901960;29;20060;-73
2022/07/07 10:32:39;;;;;;;3.97;1.67;;;;;;;;;;4900649;29;20056;-74
2022/07/07 10:35:10;;;;;;;2.13;1.50;;;;;;;;;;4906007;29;20040;-71
2022/07/07 10:37:52;;;;;;;4.40;1.63;;;;;;;;;;4908296;29;20052;-68
2022/07/07 10:40:21;;;;;;;1.77;1.50;;;;;;;;;;4909381;29;20052;-74
2022/07/07 10:43:16;;;;;;;6.30;1.70;;;;;;;;;;4908301;29;20091;-74
2022/07/07 10:45:49;;;;;;;3.85;1.85;;;;;;;;;;4909314;29;20424;-72
2022/07/07 10:48:47;;;;;;;2.05;1.45;;;;;;;;;;4904059;29;20078;-70
2022/07/07 10:51:15;;;;;;;2.38;1.50;;;;;;;;;;4913218;29;20052;-71
2022/07/07 10:54:09;;;;;;;1.52;1.35;;;;;;;;;;4913106;29;20129;-72
2022/07/07 10:57:02;;;;;;;2.63;1.33;;;;;;;;;;4912982;29;20080;-69
2022/07/07 10:59:29;;;;;;;1.52;1.40;;;;;;;;;;4908039;29;20508;-70
2022/07/07 11:02:02;;;;;;;4.65;1.60;;;;;;;;;;4904096;29;20127;-68
2022/07/07 11:04:41;;;;;;;1.27;1.13;;;;;;;;;;4903544;29;20048;-69
2022/07/07 11:07:27;;;;;;;1.30;1.20;;;;;;;;;;4905036;29;20048;-69
2022/07/07 11:10:10;;;;;;;2.40;1.25;;;;;;;;;;4913280;29;20063;-69
2022/07/07 11:12:52;;;;;;;10.05;1.73;;;;;;;;;;4905809;29;20052;-69
2022/07/07 11:15:45;;;;;;;3.67;1.33;;;;;;;;;;4904936;29;20048;-78
2022/07/07 11:18:17;;;;;;;2.75;1.50;;;;;;;;;;4909812;29;20044;-73
2022/07/07 11:21:04;;;;;;;2.65;1.60;;;;;;;;;;4907811;29;20269;-77
2022/07/07 11:23:43;;;;;;;1.55;1.20;;;;;;;;;;4918228;29;20059;-77
2022/07/07 11:26:14;;;;;;;4.18;1.70;;;;;;;;;;4903283;29;20095;-79
2022/07/07 11:28:50;;;;;;;2.47;1.45;;;;;;;;;;4904776;29;20063;-77
2022/07/07 11:31:49;;;;;;;4.95;1.65;;;;;;;;;;4910009;29;20058;-78
2022/07/07 11:34:48;;;;;;;2.00;1.30;;;;;;;;;;4907557;29;20594;-80
2022/07/07 11:37:24;;;;;;;3.38;1.58;;;;;;;;;;4893580;29;20646;-80
2022/07/07 11:39:55;;;;;;;3.53;1.60;;;;;;;;;;4908454;29;20090;-78
2022/07/07 11:42:22;;;;;;;6.25;2.00;;;;;;;;;;4897826;29;20427;-72
2022/07/07 11:44:49;;;;;;;3.15;1.75;;;;;;;;;;4905238;29;20044;-71
2022/07/07 11:47:16;;;;;;;3.35;1.52;;;;;;;;;;4903398;29;20052;-71
2022/07/07 11:49:43;;;;;;;11.75;3.05;;;;;;;;;;4896857;29;20060;-71
2022/07/07 11:52:15;;;;;;;3.03;1.42;;;;;;;;;;4904209;29;20056;-73
2022/07/07 11:54:43;;;;;;;2.63;1.88;;;;;;;;;;4902983;29;20052;-71
2022/07/07 11:57:10;;;;;;;3.42;1.77;;;;;;;;;;4904580;29;20052;-70
2022/07/07 11:59:36;;;;;;;8.00;1.83;;;;;;;;;;4902416;29;20527;-73
2022/07/07 12:02:15;;;;;;;2.03;1.30;;;;;;;;;;4904636;29;20048;-73
2022/07/07 12:04:42;;;;;;;4.22;1.60;;;;;;;;;;4903537;29;20052;-77
2022/07/07 12:07:24;;;;;;;3.13;1.40;;;;;;;;;;4908257;29;20048;-81
2022/07/07 12:09:52;;;;;;;2.65;1.40;;;;;;;;;;4890616;29;20132;-77
2022/07/07 12:12:18;;;;;;;4.40;1.95;;;;;;;;;;4905782;29;20053;-65
2022/07/07 12:14:46;;;;;;;4.93;2.00;;;;;;;;;;4904275;29;20547;-77
2022/07/07 12:17:47;;;;;;;4.38;1.60;;;;;;;;;;4880962;29;20098;-76
2022/07/07 12:20:18;;;;;;;5.38;1.83;;;;;;;;;;4917348;29;20464;-75
2022/07/07 12:22:50;;;;;;;4.72;1.88;;;;;;;;;;4902598;29;20053;-74
2022/07/07 12:25:17;;;;;;;5.25;1.90;;;;;;;;;;4923391;29;20056;-74
2022/07/07 12:28:11;;;;;;;5.47;1.60;;;;;;;;;;4904073;29;20056;-74
2022/07/07 12:30:58;;;;;;;5.38;1.70;;;;;;;;;;4906126;29;20472;-76
2022/07/07 12:33:31;;;;;;;4.13;2.25;;;;;;;;;;4883553;29;20507;-75
2022/07/07 12:36:15;;;;;;;3.83;1.90;;;;;;;;;;4907165;29;20101;-74
2022/07/07 12:38:56;;;;;;;4.22;2.38;;;;;;;;;;4896005;29;20401;-75
2022/07/07 12:41:24;;;;;;;3.40;2.00;;;;;;;;;;4880939;29;20065;-75
2022/07/07 12:43:54;;;;;;;2.80;1.92;;;;;;;;;;4904999;29;20048;-71
2022/07/07 12:46:24;;;;;;;12.23;2.13;;;;;;;;;;4904419;29;20052;-66
2022/07/07 12:48:51;;;;;;;3.53;1.40;;;;;;;;;;4894699;29;20496;-68
2022/07/07 12:51:24;;;;;;;5.30;1.70;;;;;;;;;;4912802;29;20096;-67
2022/07/07 12:53:51;;;;;;;4.38;1.65;;;;;;;;;;4902070;29;20512;-73
2022/07/07 12:56:19;;;;;;;7.47;1.58;;;;;;;;;;4903560;29;20048;-72
2022/07/07 12:58:55;;;;;;;4.72;1.52;;;;;;;;;;4907809;29;20052;-74
2022/07/07 13:01:51;;;;;;;3.53;1.80;;;;;;;;;;4901193;29;20056;-73
2022/07/07 13:04:19;;;;;;;5.07;2.15;;;;;;;;;;4910160;29;20131;-69
2022/07/07 13:06:46;;;;;;;5.13;1.85;;;;;;;;;;4905933;29;20142;-69
2022/07/07 13:09:13;;;;;;;3.85;2.15;;;;;;;;;;4900983;29;20052;-67
2022/07/07 13:12:00;;;;;;;3.03;1.70;;;;;;;;;;4904800;29;20048;-69
2022/07/07 13:14:28;;;;;;;3.78;1.80;;;;;;;;;;4903249;29;20056;-69
2022/07/07 13:16:55;;;;;;;4.68;1.90;;;;;;;;;;4901685;29;20523;-71
2022/07/07 13:19:21;;;;;;;2.47;1.55;;;;;;;;;;4905874;29;20056;-69
2022/07/07 13:21:48;;;;;;;4.28;2.20;;;;;;;;;;4903326;29;20053;-72
2022/07/07 13:24:15;;;;;;;2.95;1.70;;;;;;;;;;4904373;29;20521;-71
2022/07/07 13:26:41;;;;;;;6.82;2.00;;;;;;;;;;4905482;29;20059;-74
2022/07/07 13:29:09;;;;;;;2.58;1.80;;;;;;;;;;4902972;29;20410;-74
2022/07/07 13:31:41;;;;;;;2.33;1.88;;;;;;;;;;4903494;29;20064;-75
2022/07/07 13:34:10;;;;;;;2.78;1.85;;;;;;;;;;4908605;29;20053;-74
2022/07/07 13:36:43;;;;;;;2.58;1.52;;;;;;;;;;4902840;29;20048;-74
2022/07/07 13:39:10;;;;;;;;;;;;;;;;;;4901483;29;20048;-70
2022/07/07 13:42:32;;;;;;;1.33;0.80;;;;;;;;;;4908250;29;20387;-76
2022/07/07 13:45:02;;;;;;;1.45;0.90;;;;;;;;;;4884995;29;20076;-77
2022/07/07 13:47:52;;;;;;;1.60;0.90;;;;;;;;;;4896878;29;20090;-76
2022/07/07 13:50:22;;;;;;;1.00;0.73;;;;;;;;;;4894255;29;20049;-78
2022/07/07 13:52:52;;;;;;;1.45;0.80;;;;;;;;;;4890041;29;20044;-71
2022/07/07 13:55:19;;;;;;;1.38;0.70;;;;;;;;;;4903719;29;20499;-71
2022/07/07 13:57:46;;;;;;;3.17;1.25;;;;;;;;;;4904621;29;20488;-69
2022/07/07 14:00:13;;;;;;;1.35;1.15;;;;;;;;;;4898361;29;20076;-70
2022/07/07 14:02:42;;;;;;;2.50;0.85;;;;;;;;;;4909590;29;20048;-74
2022/07/07 14:05:09;;;;;;;4.82;1.08;;;;;;;;;;4903795;29;20080;-71
2022/07/07 14:07:38;;;;;;;2.88;0.90;;;;;;;;;;4901653;29;20057;-73
2022/07/07 14:10:05;;;;;;;1.35;1.05;;;;;;;;;;4906349;29;20139;-73
2022/07/07 14:12:33;;;;;;;2.00;1.05;;;;;;;;;;4912620;29;20060;-71
2022/07/07 14:14:59;;;;;;;3.45;1.00;;;;;;;;;;4915403;29;20111;-72
2022/07/07 14:17:27;;;;;;;1.75;1.45;;;;;;;;;;4904814;29;20473;-68
2022/07/07 14:19:54;;;;;;;3.10;1.02;;;;;;;;;;4911518;29;20131;-69
2022/07/07 14:22:21;;;;;;;1.50;0.77;;;;;;;;;;4916580;29;20060;-68
2022/07/07 14:24:48;;;;;;;1.00;0.90;;;;;;;;;;4907623;29;20048;-72
2022/07/07 14:27:15;;;;;;;0.98;0.63;;;;;;;;;;4904542;29;20427;-73
2022/07/07 14:29:41;;;;;;;1.50;1.10;;;;;;;;;;4910972;29;20055;-72
2022/07/07 14:32:08;;;;;;;2.75;1.20;;;;;;;;;;4904956;29;20149;-69
2022/07/07 14:34:34;;;;;;;4.10;1.40;;;;;;;;;;4907712;29;20056;-74
2022/07/07 14:37:01;;;;;;;6.53;1.60;;;;;;;;;;4912360;29;20493;-72
2022/07/07 14:39:28;;;;;;;1.23;1.13;;;;;;;;;;4908268;29;20063;-75
2022/07/07 14:41:55;;;;;;;1.20;1.10;;;;;;;;;;4906029;29;20059;-76
2022/07/07 14:44:21;;;;;;;1.25;1.15;;;;;;;;;;4905152;29;20512;-73
2022/07/07 14:46:48;;;;;;;1.75;1.40;;;;;;;;;;4904994;29;20056;-76
2022/07/07 14:49:15;;;;;;;2.13;1.33;;;;;;;;;;4907250;29;20479;-77
2022/07/07 14:51:42;;;;;;;2.17;1.30;;;;;;;;;;4908166;29;20131;-74
2022/07/07 14:54:08;;;;;;;1.30;1.20;;;;;;;;;;4905357;29;20496;-71
2022/07/07 14:56:35;;;;;;;3.15;1.60;;;;;;;;;;4911126;29;20064;-72
2022/07/07 14:59:02;;;;;;;2.95;1.50;;;;;;;;;;4903900;29;20052;-75